Time;durP1;ratioP1;P1;durP2;ratioP2;P2;SDS_P1;SDS_P2;PMS_P1;PMS_P2;Temp;Humidity;BMP_temperature;BMP_pressure;BME280_temperature;BME280_humidity;BME280_pressure;Samples;Min_cycle;Max_cycle;Signal;HPM_P1;HPM_P2
2021/03/25 00:00:16;;;;;;;32.38;15.95;;;;;;;6.01;66.23;100711.66;5094153;28;20052;-63
2021/03/25 00:02:43;;;;;;;37.25;17.63;;;;;;;5.99;66.38;100705.56;5094497;28;20048;-63
2021/03/25 00:05:12;;;;;;;32.55;16.15;;;;;;;5.99;66.58;100708.31;5093870;28;20063;-63
2021/03/25 00:07:39;;;;;;;35.38;16.73;;;;;;;5.99;66.80;100702.78;5099076;28;20489;-63
2021/03/25 00:10:08;;;;;;;30.88;16.20;;;;;;;5.98;66.57;100703.88;5094430;28;20059;-63
2021/03/25 00:12:36;;;;;;;30.67;15.35;;;;;;;5.99;66.75;100702.78;5094624;28;20052;-63
2021/03/25 00:15:04;;;;;;;30.63;16.02;;;;;;;5.97;66.73;100698.66;5094070;28;20052;-63
2021/03/25 00:17:32;;;;;;;30.27;15.70;;;;;;;5.96;66.68;100702.50;5094221;28;20052;-63
2021/03/25 00:19:58;;;;;;;31.42;15.52;;;;;;;5.97;66.45;100699.47;5094178;28;20052;-63
2021/03/25 00:22:25;;;;;;;29.27;15.57;;;;;;;5.96;66.11;100696.97;5094987;28;20130;-63
2021/03/25 00:24:55;;;;;;;30.30;13.98;;;;;;;5.95;65.96;100703.63;5108234;28;20411;-63
2021/03/25 00:27:22;;;;;;;27.27;15.25;;;;;;;5.91;65.86;100697.78;5113654;28;20077;-63
2021/03/25 00:29:48;;;;;;;27.88;14.05;;;;;;;5.90;65.47;100698.91;5113954;28;20173;-63
2021/03/25 00:32:15;;;;;;;34.63;16.02;;;;;;;5.85;65.07;100696.97;5113797;28;20055;-63
2021/03/25 00:34:43;;;;;;;27.05;15.30;;;;;;;5.82;65.61;100696.72;5113620;28;20385;-63
2021/03/25 00:37:10;;;;;;;24.27;14.43;;;;;;;5.80;65.64;100698.91;5114189;28;20059;-63
2021/03/25 00:39:37;;;;;;;28.38;14.38;;;;;;;5.74;65.83;100700.03;5100884;28;20044;-63
2021/03/25 00:42:07;;;;;;;28.50;14.73;;;;;;;5.72;65.58;100705.00;5093432;28;20052;-63
2021/03/25 00:44:37;;;;;;;27.80;15.30;;;;;;;5.70;65.76;100705.25;5093298;28;20052;-63
2021/03/25 00:47:05;;;;;;;28.63;14.98;;;;;;;5.67;65.78;100705.81;5093482;28;20051;-63
2021/03/25 00:49:34;;;;;;;29.88;14.68;;;;;;;5.61;66.21;100702.22;5093651;28;20055;-63
2021/03/25 00:52:03;;;;;;;31.58;15.60;;;;;;;5.57;66.26;100705.81;5093440;28;20055;-63
2021/03/25 00:54:30;;;;;;;28.52;14.63;;;;;;;5.53;65.89;100694.47;5093833;28;20048;-63
2021/03/25 00:56:59;;;;;;;28.13;14.48;;;;;;;5.53;65.87;100694.47;5093102;28;20480;-63
2021/03/25 00:59:26;;;;;;;32.60;15.88;;;;;;;5.50;66.01;100689.50;5093464;28;20048;-63
2021/03/25 01:01:53;;;;;;;35.33;16.60;;;;;;;5.44;65.94;100685.91;5092999;28;20063;-63
2021/03/25 01:04:20;;;;;;;32.97;16.25;;;;;;;5.44;66.23;100687.84;5093087;28;20063;-63
2021/03/25 01:06:47;;;;;;;36.00;17.67;;;;;;;5.39;66.52;100682.31;5092776;28;20048;-63
2021/03/25 01:09:21;;;;;;;39.58;19.27;;;;;;;5.37;66.99;100690.84;5093025;28;20063;-63
2021/03/25 01:11:48;;;;;;;37.75;19.30;;;;;;;5.35;66.54;100686.72;5094451;28;20063;-63
2021/03/25 01:14:16;;;;;;;31.70;17.48;;;;;;;5.35;66.73;100689.47;5092924;28;20048;-63
2021/03/25 01:16:45;;;;;;;33.28;17.33;;;;;;;5.29;67.04;100680.34;5093109;28;20044;-63
2021/03/25 01:19:16;;;;;;;36.17;18.50;;;;;;;5.28;66.74;100687.81;5093006;28;20488;-63
2021/03/25 01:21:44;;;;;;;38.75;18.95;;;;;;;5.25;67.69;100685.63;5092721;28;20059;-63
2021/03/25 01:24:12;;;;;;;38.13;19.50;;;;;;;5.23;67.60;100675.94;5092880;28;20055;-63
2021/03/25 01:26:42;;;;;;;32.88;17.92;;;;;;;5.25;67.23;100682.84;5092485;28;20052;-63
2021/03/25 01:29:09;;;;;;;33.65;17.10;;;;;;;5.24;66.58;100675.66;5092397;28;20055;-62
2021/03/25 01:31:37;;;;;;;32.22;17.95;;;;;;;5.24;66.98;100678.41;5092752;28;20481;-63
2021/03/25 01:34:05;;;;;;;33.88;17.70;;;;;;;5.21;67.23;100673.47;5092536;28;20048;-62
2021/03/25 01:36:32;;;;;;;34.88;19.02;;;;;;;5.22;67.06;100666.81;5092496;28;20500;-63
2021/03/25 01:38:59;;;;;;;32.25;16.98;;;;;;;5.21;66.92;100673.47;5093088;28;20059;-63
2021/03/25 01:41:29;;;;;;;34.60;17.63;;;;;;;5.20;66.49;100660.75;5092797;28;20519;-63
2021/03/25 01:43:59;;;;;;;34.78;17.85;;;;;;;5.17;66.70;100664.06;5052698;28;20072;-63
2021/03/25 01:46:28;;;;;;;34.33;17.08;;;;;;;5.15;67.66;100660.75;5052526;28;20049;-63
2021/03/25 01:48:57;;;;;;;35.65;16.92;;;;;;;5.15;67.29;100655.22;5052226;28;20049;-63
2021/03/25 01:51:39;;;;;;;34.92;16.20;;;;;;;5.13;67.34;100653.84;5052478;28;20057;-63
2021/03/25 01:54:41;;;;;;;33.60;17.23;;;;;;;5.06;67.03;100656.84;5052900;28;20060;-63
2021/03/25 01:57:43;;;;;;;33.35;17.25;;;;;;;5.01;67.66;100648.56;5047810;28;20099;-63
2021/03/25 02:00:28;;;;;;;31.65;16.70;;;;;;;5.00;67.45;100647.75;5052668;28;20049;-63
2021/03/25 02:03:14;;;;;;;30.85;16.67;;;;;;;5.01;67.53;100648.56;5052265;28;20049;-63
2021/03/25 02:05:51;;;;;;;34.08;15.75;;;;;;;5.02;67.25;100655.75;5052025;28;20045;-63
2021/03/25 02:08:27;;;;;;;31.42;17.27;;;;;;;5.01;67.80;100654.09;5059706;28;20144;-62
2021/03/25 02:11:05;;;;;;;32.42;17.10;;;;;;;4.99;67.57;100653.53;5072432;28;20056;-63
2021/03/25 02:13:40;;;;;;;33.65;16.88;;;;;;;5.00;67.35;100641.41;5072390;28;20071;-63
2021/03/25 02:16:13;;;;;;;32.78;15.88;;;;;;;5.02;67.30;100633.66;5072329;28;20052;-63
2021/03/25 02:18:46;;;;;;;30.40;15.30;;;;;;;5.02;67.08;100633.66;5072714;28;20056;-62
2021/03/25 02:21:26;;;;;;;31.23;15.90;;;;;;;4.95;66.57;100628.38;5072192;28;20056;-62
2021/03/25 02:24:23;;;;;;;31.00;15.60;;;;;;;4.96;66.77;100629.25;5058062;28;20053;-63
2021/03/25 02:26:53;;;;;;;33.60;16.50;;;;;;;4.92;67.19;100626.19;5051846;28;20064;-63
2021/03/25 02:29:39;;;;;;;;;;;;;;;4.85;67.59;100631.97;5052696;28;20049;-63
2021/03/25 02:32:11;;;;;;;28.20;14.05;;;;;;;4.85;66.95;100634.75;5053103;28;19928;-62
2021/03/25 02:34:43;;;;;;;32.20;16.65;;;;;;;4.84;66.83;100624.78;5052160;28;20160;-63
2021/03/25 02:37:15;;;;;;;35.45;16.73;;;;;;;4.85;66.86;100623.69;5051861;28;20049;-63
2021/03/25 02:39:50;;;;;;;33.28;16.63;;;;;;;4.86;67.07;100630.03;5052652;28;20064;-63
2021/03/25 02:42:21;;;;;;;37.53;17.20;;;;;;;4.85;66.99;100629.22;5065271;28;20056;-63
2021/03/25 02:44:51;;;;;;;35.05;15.90;;;;;;;4.81;67.54;100630.88;5092024;28;20386;-63
2021/03/25 02:47:23;;;;;;;27.10;14.77;;;;;;;4.80;67.12;100620.91;5092177;28;20044;-63
2021/03/25 02:49:56;;;;;;;29.52;16.23;;;;;;;4.82;67.09;100623.41;5092972;28;20511;-63
2021/03/25 02:52:30;;;;;;;30.50;14.70;;;;;;;4.82;67.55;100617.88;5095470;28;20051;-63
2021/03/25 02:54:59;;;;;;;30.35;15.15;;;;;;;4.78;67.66;100612.06;5096032;28;20052;-63
2021/03/25 02:57:32;;;;;;;31.33;16.27;;;;;;;4.75;67.53;100609.06;5095877;28;20055;-63
2021/03/25 03:00:06;;;;;;;32.33;16.05;;;;;;;4.75;67.93;100612.63;5095259;28;20059;-63
2021/03/25 03:02:41;;;;;;;30.42;15.68;;;;;;;4.70;67.65;100614.53;5095305;28;20056;-63
2021/03/25 03:05:13;;;;;;;33.25;16.70;;;;;;;4.68;67.96;100609.28;5095634;28;20059;-62
2021/03/25 03:07:47;;;;;;;32.00;16.30;;;;;;;4.69;68.59;100605.44;5095823;28;20052;-63
2021/03/25 03:10:20;;;;;;;31.67;15.45;;;;;;;4.68;68.16;100598.25;5095688;28;20389;-62
2021/03/25 03:12:50;;;;;;;32.13;15.63;;;;;;;4.67;68.65;100605.69;5095676;28;20056;-63
2021/03/25 03:15:25;;;;;;;29.20;15.35;;;;;;;4.72;68.63;100606.81;5095062;28;20063;-62
2021/03/25 03:18:00;;;;;;;29.35;15.52;;;;;;;4.73;68.69;100603.78;5095070;28;20056;-62
2021/03/25 03:20:36;;;;;;;28.73;15.15;;;;;;;4.72;68.08;100601.31;5096382;28;20060;-63
2021/03/25 03:23:04;;;;;;;34.85;17.23;;;;;;;4.73;68.29;100598.28;5095324;28;20392;-63
2021/03/25 03:25:31;;;;;;;30.52;15.23;;;;;;;4.77;68.39;100598.56;5097262;28;20055;-63
2021/03/25 03:28:02;;;;;;;29.15;15.07;;;;;;;4.79;68.24;100596.38;5095196;28;20056;-63
2021/03/25 03:30:33;;;;;;;32.75;16.75;;;;;;;4.79;68.22;100604.66;5095197;28;20056;-63
2021/03/25 03:33:07;;;;;;;33.45;17.13;;;;;;;4.80;68.03;100598.84;5095320;28;20055;-62
2021/03/25 03:35:38;;;;;;;29.95;15.82;;;;;;;4.82;67.60;100591.13;5094527;28;20048;-62
2021/03/25 03:38:10;;;;;;;30.23;16.23;;;;;;;4.85;67.05;100595.25;5095885;28;20044;-63
2021/03/25 03:40:41;;;;;;;33.88;16.40;;;;;;;4.87;67.19;100599.41;5095047;28;20063;-63
2021/03/25 03:43:13;;;;;;;27.20;15.10;;;;;;;4.86;67.15;100605.19;5094361;28;20052;-63
2021/03/25 03:45:45;;;;;;;31.88;16.45;;;;;;;4.86;67.55;100603.25;5094669;28;20070;-63
2021/03/25 03:48:20;;;;;;;31.40;16.15;;;;;;;4.89;67.61;100601.88;5095059;28;20060;-63
2021/03/25 03:50:51;;;;;;;29.17;15.90;;;;;;;4.91;67.12;100599.69;5094679;28;20052;-63
2021/03/25 03:53:18;;;;;;;28.20;15.30;;;;;;;4.92;67.50;100597.78;5095472;28;20048;-63
2021/03/25 03:55:45;;;;;;;29.00;16.05;;;;;;;4.94;67.45;100593.63;5094380;28;20078;-62
2021/03/25 03:58:19;;;;;;;32.97;16.65;;;;;;;4.89;67.74;100601.88;5094562;28;20055;-63
2021/03/25 04:00:54;;;;;;;31.73;16.35;;;;;;;4.94;67.65;100599.16;5094237;28;20052;-63
2021/03/25 04:03:29;;;;;;;31.67;17.60;;;;;;;4.98;67.68;100599.44;5094607;28;20498;-63
2021/03/25 04:06:02;;;;;;;27.80;15.27;;;;;;;5.00;67.74;100598.06;5094258;28;20048;-62
2021/03/25 04:08:34;;;;;;;26.48;14.90;;;;;;;5.03;67.62;100594.72;5094279;28;20044;-63
2021/03/25 04:11:08;;;;;;;30.00;15.77;;;;;;;4.97;67.39;100601.34;5096155;28;20048;-63
2021/03/25 04:13:40;;;;;;;28.67;15.70;;;;;;;4.97;67.44;100604.09;5094783;28;20451;-63
2021/03/25 04:16:07;;;;;;;29.17;15.70;;;;;;;5.03;67.30;100596.66;5094559;28;20055;-63
2021/03/25 04:18:41;;;;;;;29.52;15.38;;;;;;;5.08;66.76;100594.75;5094305;28;20048;-63
2021/03/25 04:21:12;;;;;;;31.23;16.75;;;;;;;5.08;66.69;100603.03;5094282;28;20330;-63
2021/03/25 04:23:44;;;;;;;30.10;15.80;;;;;;;5.09;66.63;100601.09;5094860;28;20055;-63
2021/03/25 04:26:18;;;;;;;30.63;15.65;;;;;;;5.06;67.26;100601.63;5094211;28;20051;-63
2021/03/25 04:28:50;;;;;;;29.88;15.27;;;;;;;5.06;67.47;100608.00;5094378;28;20055;-63
2021/03/25 04:31:17;;;;;;;30.50;16.27;;;;;;;5.08;67.44;100600.28;5094207;28;20059;-63
2021/03/25 04:33:45;;;;;;;28.95;16.25;;;;;;;5.14;67.44;100595.56;5093591;28;20059;-63
2021/03/25 04:36:17;;;;;;;27.08;14.68;;;;;;;5.20;66.87;100604.69;5094017;28;20055;-62
2021/03/25 04:38:45;;;;;;;26.55;15.27;;;;;;;5.22;66.22;100595.03;5094634;28;20044;-62
2021/03/25 04:41:16;;;;;;;26.98;15.13;;;;;;;5.24;66.11;100600.28;5094100;28;20060;-63
2021/03/25 04:43:45;;;;;;;26.50;13.30;;;;;;;5.25;66.61;100616.56;5093237;28;20059;-63
2021/03/25 04:46:27;;;;;;;30.02;16.65;;;;;;;5.27;66.36;100606.09;5093542;28;20051;-63
2021/03/25 04:48:58;;;;;;;27.92;14.80;;;;;;;5.24;65.93;100598.34;5093750;28;20052;-63
2021/03/25 04:51:26;;;;;;;31.58;15.57;;;;;;;5.19;66.10;100603.88;5093434;28;20060;-63
2021/03/25 04:54:11;;;;;;;30.10;15.00;;;;;;;5.23;66.52;100604.97;5093915;28;20504;-63
2021/03/25 04:56:39;;;;;;;25.98;14.70;;;;;;;5.25;66.41;100613.81;5092807;28;20055;-63
2021/03/25 04:59:07;;;;;;;26.00;14.32;;;;;;;5.25;66.36;100611.06;5093779;28;20044;-63
2021/03/25 05:01:35;;;;;;;29.42;15.25;;;;;;;5.21;67.09;100620.16;5093537;28;20063;-63
2021/03/25 05:04:05;;;;;;;32.13;17.02;;;;;;;5.20;66.85;100611.03;5093782;28;20056;-63
2021/03/25 05:06:41;;;;;;;;;;;;;;;5.13;67.45;100604.97;5093625;28;20056;-63
2021/03/25 05:09:15;;;;;;;30.20;14.90;;;;;;;5.15;66.63;100607.47;5093677;28;19920;-63
2021/03/25 05:11:42;;;;;;;29.60;15.93;;;;;;;5.18;67.07;100609.66;5093568;28;20063;-63
2021/03/25 05:14:15;;;;;;;30.17;15.30;;;;;;;5.17;66.74;100616.28;5093025;28;20056;-63
2021/03/25 05:16:54;;;;;;;30.85;15.73;;;;;;;5.17;67.10;100608.00;5092999;28;20051;-64
2021/03/25 05:19:34;;;;;;;31.83;16.30;;;;;;;5.07;67.38;100612.41;5092781;28;20055;-63
2021/03/25 05:22:12;;;;;;;29.90;15.77;;;;;;;5.04;67.85;100612.13;5092756;28;20503;-63
2021/03/25 05:24:44;;;;;;;32.90;15.70;;;;;;;5.02;68.42;100619.88;5093629;28;20509;-63
2021/03/25 05:27:17;;;;;;;37.03;16.63;;;;;;;5.05;68.98;100622.06;5092975;28;20370;-63
2021/03/25 05:29:45;;;;;;;35.25;17.55;;;;;;;5.08;69.07;100611.31;5092649;28;20508;-63
2021/03/25 05:32:18;;;;;;;33.92;16.70;;;;;;;5.15;68.44;100618.50;5092621;28;20064;-62
2021/03/25 05:34:49;;;;;;;31.38;16.73;;;;;;;5.20;69.15;100618.50;5096471;28;20044;-63
2021/03/25 05:37:16;;;;;;;34.28;16.90;;;;;;;5.28;68.86;100626.22;5092574;28;20044;-63
2021/03/25 05:39:43;;;;;;;29.70;16.67;;;;;;;5.36;68.38;100627.63;5092826;28;20052;-63
2021/03/25 05:42:21;;;;;;;35.35;16.35;;;;;;;5.43;67.69;100620.69;5092344;28;20527;-63
2021/03/25 05:45:17;;;;;;;36.15;17.98;;;;;;;5.48;67.13;100626.25;5093075;28;20059;-63
2021/03/25 05:48:15;;;;;;;35.55;16.48;;;;;;;5.49;67.25;100624.31;5092722;28;20045;-63
2021/03/25 05:50:52;;;;;;;34.58;17.30;;;;;;;5.50;67.68;100623.19;5095353;28;20531;-63
2021/03/25 05:53:35;;;;;;;34.67;17.58;;;;;;;5.55;67.50;100631.50;5091868;28;20062;-63
2021/03/25 05:56:18;;;;;;;36.10;18.38;;;;;;;5.60;67.79;100633.41;5097184;28;20083;-63
2021/03/25 05:58:49;;;;;;;31.20;16.02;;;;;;;5.68;67.28;100636.44;5110493;28;20047;-63
2021/03/25 06:01:36;;;;;;;32.30;16.50;;;;;;;5.79;66.64;100630.91;5102058;28;20052;-63
2021/03/25 06:04:10;;;;;;;31.10;16.60;;;;;;;5.87;66.19;100635.88;5090236;28;20063;-63
2021/03/25 06:06:55;;;;;;;26.38;15.50;;;;;;;5.95;65.89;100629.81;5090262;28;20048;-63
2021/03/25 06:09:34;;;;;;;30.77;16.40;;;;;;;6.02;65.71;100630.34;5089861;28;20052;-63
2021/03/25 06:12:10;;;;;;;31.85;18.00;;;;;;;6.09;65.73;100635.59;5090363;28;20346;-63
2021/03/25 06:14:50;;;;;;;33.33;17.90;;;;;;;6.17;65.31;100648.00;5089720;28;20059;-63
2021/03/25 06:17:32;;;;;;;30.02;16.60;;;;;;;6.27;65.20;100653.50;5089997;28;20059;-63
2021/03/25 06:20:14;;;;;;;27.70;15.80;;;;;;;6.32;64.80;100649.88;5099942;28;20062;-63
2021/03/25 06:22:57;;;;;;;31.60;16.23;;;;;;;6.40;65.05;100641.84;5111544;28;20056;-62
2021/03/25 06:25:50;;;;;;;31.20;16.42;;;;;;;6.55;64.59;100649.28;5095796;28;20051;-63
2021/03/25 06:28:22;;;;;;;31.90;16.02;;;;;;;6.66;63.88;100661.94;5096599;28;20469;-63
2021/03/25 06:31:06;;;;;;;29.40;16.70;;;;;;;6.77;63.84;100659.97;5099480;28;20500;-63
2021/03/25 06:33:37;;;;;;;29.60;16.38;;;;;;;6.83;64.02;100667.13;5101068;28;20053;-63
2021/03/25 06:36:09;;;;;;;28.13;16.88;;;;;;;6.91;63.88;100655.47;5107216;28;20044;-63
2021/03/25 06:38:40;;;;;;;27.17;15.77;;;;;;;7.02;63.86;100672.84;5103007;28;20400;-63
2021/03/25 06:41:14;;;;;;;25.90;16.40;;;;;;;7.01;63.83;100673.94;5107008;28;20044;-63
2021/03/25 06:43:48;;;;;;;30.02;16.60;;;;;;;7.07;64.00;100677.50;5095973;28;20060;-63
2021/03/25 06:46:24;;;;;;;26.42;15.63;;;;;;;7.15;64.59;100670.56;5108337;28;20040;-63
2021/03/25 06:48:54;;;;;;;29.65;17.15;;;;;;;7.21;63.98;100677.72;5108552;28;20053;-63
2021/03/25 06:51:27;;;;;;;28.90;17.60;;;;;;;7.30;63.82;100671.25;5111095;28;20480;-63
2021/03/25 06:54:09;;;;;;;28.80;17.58;;;;;;;7.33;63.99;100675.44;5097589;28;20481;-63
2021/03/25 06:56:42;;;;;;;32.13;16.85;;;;;;;7.41;64.04;100673.97;5097707;28;20389;-63
2021/03/25 06:59:18;;;;;;;28.55;16.98;;;;;;;7.49;64.40;100668.63;5099126;28;20059;-63
2021/03/25 07:01:47;;;;;;;32.28;17.30;;;;;;;7.68;63.96;100674.31;5101796;28;20043;-63
2021/03/25 07:04:25;;;;;;;31.08;16.75;;;;;;;7.86;62.77;100660.84;5104799;28;20404;-63
2021/03/25 07:06:55;;;;;;;32.20;17.90;;;;;;;8.04;62.71;100662.91;5100103;28;20047;-62
2021/03/25 07:09:28;;;;;;;28.17;16.60;;;;;;;8.20;61.51;100657.19;5103809;28;20409;-63
2021/03/25 07:11:57;;;;;;;28.30;16.17;;;;;;;8.41;61.65;100660.59;5103568;28;20055;-63
2021/03/25 07:14:34;;;;;;;33.70;18.20;;;;;;;8.60;61.50;100663.41;5103400;28;20054;-63
2021/03/25 07:17:04;;;;;;;33.88;21.75;;;;;;;8.79;61.00;100664.28;5105472;28;20472;-63
2021/03/25 07:19:35;;;;;;;32.00;17.10;;;;;;;9.05;60.21;100661.16;5098574;28;20050;-63
2021/03/25 07:22:17;;;;;;;32.97;21.67;;;;;;;9.23;60.17;100665.06;5099162;28;20066;-63
2021/03/25 07:24:46;;;;;;;27.40;18.60;;;;;;;9.48;59.48;100661.06;5097967;28;20417;-63
2021/03/25 07:27:14;;;;;;;30.77;19.95;;;;;;;9.70;58.26;100664.06;5109241;28;20040;-63
2021/03/25 07:29:43;;;;;;;31.45;18.85;;;;;;;9.91;57.62;100664.53;5096865;28;20052;-63
2021/03/25 07:32:31;;;;;;;29.33;18.50;;;;;;;10.05;57.11;100672.88;5096315;28;20044;-63
2021/03/25 07:35:11;;;;;;;29.38;18.50;;;;;;;10.23;57.25;100665.59;5105685;28;20055;-63
2021/03/25 07:37:41;;;;;;;34.30;20.23;;;;;;;10.44;56.20;100668.84;5093836;28;20044;-63
2021/03/25 07:40:21;;;;;;;;;;;;;;;10.71;55.75;100665.25;5094180;28;20040;-63
2021/03/25 07:42:48;;;;;;;29.88;17.23;;;;;;;11.13;54.21;100662.41;5108257;28;19920;-63
2021/03/25 07:45:22;;;;;;;28.73;16.63;;;;;;;11.56;52.57;100673.09;5093743;28;20059;-68
2021/03/25 07:47:50;;;;;;;29.48;17.55;;;;;;;11.97;51.07;100669.31;5093636;28;20048;-68
2021/03/25 07:50:27;;;;;;;29.52;17.00;;;;;;;12.49;49.47;100663.97;5101176;28;20059;-68
2021/03/25 07:52:56;;;;;;;29.20;17.98;;;;;;;13.07;47.83;100664.78;5097384;28;20051;-68
2021/03/25 07:55:30;;;;;;;30.13;17.00;;;;;;;13.78;45.77;100663.69;5102677;28;20067;-68
2021/03/25 07:57:58;;;;;;;31.48;18.85;;;;;;;14.34;44.48;100667.34;5107764;27;20058;-68
2021/03/25 08:00:31;;;;;;;27.55;17.90;;;;;;;14.91;43.11;100662.47;5108496;27;20475;-68
2021/03/25 08:03:13;;;;;;;26.42;18.02;;;;;;;15.27;42.54;100666.72;5097538;28;20052;-68
2021/03/25 08:05:44;;;;;;;27.48;16.98;;;;;;;15.54;41.81;100663.34;5106583;28;20055;-68
2021/03/25 08:08:28;;;;;;;27.55;17.40;;;;;;;15.70;41.03;100666.31;5095589;28;20059;-68
2021/03/25 08:11:11;;;;;;;28.42;17.88;;;;;;;16.24;40.76;100662.69;5092252;28;20071;-68
2021/03/25 08:13:47;;;;;;;25.58;16.90;;;;;;;17.01;38.73;100662.88;5093869;28;20052;-68
2021/03/25 08:16:16;;;;;;;28.77;17.85;;;;;;;17.81;36.79;100666.03;5105657;28;20436;-68
2021/03/25 08:19:10;;;;;;;31.50;18.20;;;;;;;18.42;35.43;100667.72;5092494;28;20477;-68
2021/03/25 08:21:42;;;;;;;27.58;17.77;;;;;;;19.06;34.79;100662.88;5102164;28;20054;-68
2021/03/25 08:24:36;;;;;;;25.60;18.35;;;;;;;19.42;33.37;100664.50;5093377;28;20070;-68
2021/03/25 08:27:24;;;;;;;29.85;19.05;;;;;;;19.72;33.23;100672.44;5102710;28;20047;-68
2021/03/25 08:30:11;;;;;;;27.97;19.57;;;;;;;19.67;33.10;100670.69;5104151;28;20067;-68
2021/03/25 08:32:59;;;;;;;30.20;19.20;;;;;;;19.63;33.89;100672.63;5103474;28;20405;-68
2021/03/25 08:35:32;;;;;;;27.35;18.65;;;;;;;19.54;34.13;100671.19;5094864;28;20043;-68
2021/03/25 08:38:33;;;;;;;30.50;18.85;;;;;;;19.41;34.06;100668.50;5103200;28;20403;-68
2021/03/25 08:41:03;;;;;;;26.20;19.20;;;;;;;19.24;34.74;100663.28;5098160;28;20439;-68
2021/03/25 08:43:36;;;;;;;30.30;20.70;;;;;;;19.17;34.93;100665.94;5101199;28;20086;-68
2021/03/25 08:46:10;;;;;;;31.30;20.02;;;;;;;19.24;34.34;100657.63;5107857;28;20052;-68
2021/03/25 08:48:43;;;;;;;32.95;21.05;;;;;;;19.28;34.40;100664.19;5095564;28;20078;-68
2021/03/25 08:51:15;;;;;;;29.85;21.13;;;;;;;19.19;34.62;100663.56;5094927;28;20134;-68
2021/03/25 08:53:46;;;;;;;36.72;24.35;;;;;;;19.33;34.43;100658.25;5091426;28;20058;-68
2021/03/25 08:56:29;;;;;;;31.73;22.67;;;;;;;19.52;34.17;100670.75;5101940;28;20048;-68
2021/03/25 08:59:00;;;;;;;36.13;23.00;;;;;;;19.98;33.53;100668.09;5103899;28;20404;-68
2021/03/25 09:01:32;;;;;;;33.13;22.65;;;;;;;20.32;33.05;100673.97;5099988;28;20062;-68
2021/03/25 09:04:03;;;;;;;37.28;24.77;;;;;;;20.69;32.66;100674.28;5097980;28;20051;-68
2021/03/25 09:06:32;;;;;;;34.75;23.35;;;;;;;21.03;32.04;100672.38;5104593;28;20058;-68
2021/03/25 09:09:30;;;;;;;33.13;23.55;;;;;;;21.30;31.95;100658.22;5103369;28;20052;-68
2021/03/25 09:11:57;;;;;;;37.05;22.90;;;;;;;21.90;29.84;100657.38;5101630;28;20055;-68
2021/03/25 09:14:26;;;;;;;35.30;23.05;;;;;;;22.73;29.27;100656.19;5106689;28;20044;-68
2021/03/25 09:17:02;;;;;;;34.33;23.08;;;;;;;23.67;27.71;100654.78;5104825;28;20055;-68
2021/03/25 09:19:32;;;;;;;31.27;23.17;;;;;;;24.49;25.76;100659.91;5104206;28;20395;-68
2021/03/25 09:22:00;;;;;;;31.15;22.40;;;;;;;25.34;24.52;100658.22;5106782;28;20059;-68
2021/03/25 09:24:27;;;;;;;31.15;22.80;;;;;;;26.02;22.76;100648.63;5089923;28;20051;-68
2021/03/25 09:26:59;;;;;;;31.05;23.00;;;;;;;26.44;22.27;100647.50;5100934;28;20051;-68
2021/03/25 09:29:54;;;;;;;33.00;24.08;;;;;;;27.09;22.26;100650.63;5094966;28;20044;-68
2021/03/25 09:32:36;;;;;;;30.10;21.95;;;;;;;27.84;21.12;100654.69;5100951;28;20051;-68
2021/03/25 09:35:43;;;;;;;30.67;23.98;;;;;;;28.44;19.85;100651.41;5104226;28;20063;-67
2021/03/25 09:38:28;;;;;;;28.88;22.25;;;;;;;28.30;20.07;100649.56;5093092;28;20396;-67
2021/03/25 09:40:55;;;;;;;31.02;21.85;;;;;;;28.45;19.51;100650.16;5105916;28;20052;-67
2021/03/25 09:43:36;;;;;;;32.47;22.50;;;;;;;27.48;20.17;100660.03;5109600;28;20056;-68
2021/03/25 09:46:41;;;;;;;32.15;23.50;;;;;;;25.95;22.22;100657.19;5105353;28;20054;-67
2021/03/25 09:49:36;;;;;;;33.25;23.17;;;;;;;24.63;23.84;100670.47;5074838;28;20055;-67
2021/03/25 09:52:27;;;;;;;32.30;23.40;;;;;;;23.53;25.32;100666.09;5081906;28;20056;-67
2021/03/25 09:55:23;;;;;;;34.45;24.33;;;;;;;22.66;26.48;100667.50;5110675;28;20059;-68
2021/03/25 09:57:51;;;;;;;35.78;24.65;;;;;;;21.76;28.04;100663.69;5095640;28;20048;-67
2021/03/25 10:00:51;;;;;;;35.10;24.95;;;;;;;20.64;29.72;100672.59;5110367;28;20059;-68
2021/03/25 10:03:22;;;;;;;36.55;24.52;;;;;;;20.07;31.02;100666.69;5112734;28;20051;-67
2021/03/25 10:05:50;;;;;;;37.10;25.38;;;;;;;19.62;31.89;100664.50;5112241;28;20047;-67
2021/03/25 10:08:49;;;;;;;35.15;25.52;;;;;;;19.37;32.16;100663.97;5112809;28;20044;-67
2021/03/25 10:11:51;;;;;;;39.80;27.13;;;;;;;19.10;32.61;100665.78;5107854;28;20048;-67
2021/03/25 10:14:45;;;;;;;37.67;27.10;;;;;;;18.92;33.12;100663.38;5014346;28;20550;-67
2021/03/25 10:17:43;;;;;;;39.63;27.00;;;;;;;18.93;33.39;100665.00;5112205;28;20476;-67
2021/03/25 10:20:29;;;;;;;38.05;25.42;;;;;;;18.93;33.70;100659.34;5114024;28;20059;-67
2021/03/25 10:22:57;;;;;;;37.03;26.70;;;;;;;19.80;32.79;100659.25;5110028;28;20052;-67
2021/03/25 10:25:30;;;;;;;38.17;27.15;;;;;;;21.11;30.35;100669.69;5099135;28;20077;-67
2021/03/25 10:28:01;;;;;;;36.85;27.05;;;;;;;22.04;28.85;100668.06;5096602;28;20051;-67
2021/03/25 10:30:35;;;;;;;37.15;26.20;;;;;;;22.46;27.75;100664.06;5110032;28;20055;-67
2021/03/25 10:33:06;;;;;;;38.72;27.80;;;;;;;22.47;28.20;100660.03;5096821;28;20048;-67
2021/03/25 10:35:39;;;;;;;39.63;26.08;;;;;;;22.60;27.46;100654.88;5100933;28;20047;-67
2021/03/25 10:38:13;;;;;;;41.63;28.30;;;;;;;23.25;26.95;100661.88;5100515;28;20052;-67
2021/03/25 10:40:45;;;;;;;40.25;29.17;;;;;;;23.54;26.17;100654.31;5107608;28;20082;-67
2021/03/25 10:43:17;;;;;;;36.95;27.08;;;;;;;23.59;26.50;100651.06;5100887;28;20412;-67
2021/03/25 10:45:50;;;;;;;35.83;26.95;;;;;;;23.31;26.55;100651.75;5111240;28;20491;-67
2021/03/25 10:48:25;;;;;;;38.08;26.92;;;;;;;22.97;27.33;100645.41;5096631;28;20055;-67
2021/03/25 10:50:57;;;;;;;34.15;26.08;;;;;;;22.60;27.74;100644.31;5099273;28;20480;-67
2021/03/25 10:53:31;;;;;;;37.40;26.30;;;;;;;22.20;28.14;100645.97;5113503;28;20047;-67
2021/03/25 10:56:05;;;;;;;38.58;27.38;;;;;;;22.12;28.88;100641.41;5099854;28;20485;-67
2021/03/25 10:58:37;;;;;;;37.05;27.83;;;;;;;22.19;28.94;100641.47;5104340;28;20494;-67
2021/03/25 11:01:07;;;;;;;37.75;27.95;;;;;;;23.02;27.48;100637.38;5106166;28;20047;-68
2021/03/25 11:03:36;;;;;;;;;;;;;;;24.09;26.23;100631.34;5106438;28;20071;-67
2021/03/25 11:06:05;;;;;;;38.83;26.42;;;;;;;26.71;22.95;100621.19;5111240;28;20394;-67
2021/03/25 11:08:37;;;;;;;38.47;27.13;;;;;;;29.12;19.44;100633.06;5109931;28;20050;-67
2021/03/25 11:11:16;;;;;;;36.65;27.58;;;;;;;30.20;18.49;100630.81;5112520;27;20047;-67
2021/03/25 11:13:54;;;;;;;37.50;26.67;;;;;;;31.91;16.79;100627.50;5098385;28;20048;-67
2021/03/25 11:16:23;;;;;;;34.13;27.67;;;;;;;33.45;15.02;100625.22;5108705;28;20047;-67
2021/03/25 11:18:57;;;;;;;36.50;28.33;;;;;;;34.57;14.45;100625.34;5112866;28;20043;-67
2021/03/25 11:21:30;;;;;;;37.40;28.40;;;;;;;35.60;13.18;100626.25;5100680;28;20054;-67
2021/03/25 11:24:13;;;;;;;36.53;29.88;;;;;;;35.79;13.50;100615.47;5097327;28;20499;-65
2021/03/25 11:26:41;;;;;;;36.65;31.75;;;;;;;35.65;12.74;100620.63;5100323;28;20055;-68
2021/03/25 11:29:09;;;;;;;34.75;31.00;;;;;;;35.55;12.45;100619.81;5095163;28;20312;-64
2021/03/25 11:31:37;;;;;;;33.25;29.42;;;;;;;36.06;12.46;100620.38;5100473;28;20052;-64
2021/03/25 11:34:05;;;;;;;31.60;27.17;;;;;;;36.67;12.14;100621.06;5106003;28;20048;-64
2021/03/25 11:36:43;;;;;;;34.17;27.50;;;;;;;37.22;11.93;100619.09;5109034;28;20051;-65
2021/03/25 11:39:23;;;;;;;;;;;;;;;37.46;11.85;100616.91;5103037;28;20485;-65
2021/03/25 11:41:52;;;;;;;30.27;26.85;;;;;;;38.79;10.42;100609.34;5111204;28;19934;-65
2021/03/25 11:44:42;;;;;;;28.73;25.63;;;;;;;39.64;9.57;100619.91;5113346;28;20511;-65
2021/03/25 11:47:34;;;;;;;29.95;26.73;;;;;;;40.29;9.62;100610.69;5094136;28;20056;-65
2021/03/25 11:50:04;;;;;;;33.55;29.33;;;;;;;40.55;8.91;100603.94;5098425;28;20051;-65